createdAt,value
2018-04-11T00:02:26.019Z,99.90
2018-04-11T00:04:52.235Z,99.90
2018-04-11T00:07:18.475Z,99.90
2018-04-11T00:09:45.434Z,99.90
2018-04-11T00:12:12.435Z,99.90
2018-04-11T00:14:38.651Z,99.90
2018-04-11T00:17:05.243Z,99.90
2018-04-11T00:19:31.463Z,99.90
2018-04-11T00:21:57.651Z,99.90
2018-04-11T00:24:23.866Z,99.90
2018-04-11T00:26:50.050Z,99.90
2018-04-11T00:29:16.260Z,99.90
2018-04-11T00:31:42.451Z,99.90
2018-04-11T00:34:15.530Z,99.90
2018-04-11T00:36:41.734Z,99.90
2018-04-11T00:39:08.685Z,99.90
2018-04-11T00:41:34.903Z,99.90
2018-04-11T00:44:01.855Z,99.90
2018-04-11T00:46:28.868Z,99.90
2018-04-11T00:48:55.047Z,99.90
2018-04-11T00:51:21.244Z,99.90
2018-04-11T00:53:47.463Z,99.90
2018-04-11T00:56:13.660Z,99.90
2018-04-11T00:58:39.874Z,99.90
2018-04-11T01:01:06.141Z,99.90
2018-04-11T01:03:32.681Z,99.90
2018-04-11T01:05:59.421Z,99.90
2018-04-11T01:08:26.663Z,99.90
2018-04-11T01:10:52.850Z,99.90
2018-04-11T01:13:19.067Z,99.90
2018-04-11T01:15:46.019Z,99.90
2018-04-11T01:18:12.974Z,99.90
2018-04-11T01:20:39.174Z,99.90
2018-04-11T01:23:05.386Z,99.90
2018-04-11T01:25:31.570Z,99.90
2018-04-11T01:27:57.804Z,99.90
2018-04-11T01:30:24.027Z,99.90
2018-04-11T01:32:50.308Z,99.90
2018-04-11T01:35:16.510Z,99.90
2018-04-11T01:37:42.759Z,99.90
2018-04-11T01:40:08.942Z,99.90
2018-04-11T01:42:35.127Z,99.90
2018-04-11T01:45:01.339Z,99.90
2018-04-11T01:47:27.560Z,99.90
2018-04-11T01:49:53.754Z,99.90
2018-04-11T01:52:19.963Z,99.90
2018-04-11T01:54:46.886Z,99.90
2018-04-11T01:57:13.094Z,99.90
2018-04-11T01:59:39.291Z,99.90
2018-04-11T02:02:05.508Z,99.90
2018-04-11T02:04:31.726Z,99.90
2018-04-11T02:06:58.682Z,99.90
2018-04-11T02:09:24.874Z,99.90
2018-04-11T02:11:51.111Z,99.90
2018-04-11T02:14:17.327Z,99.90
2018-04-11T02:16:44.295Z,99.90
2018-04-11T02:19:11.226Z,99.90
2018-04-11T02:21:37.439Z,99.90
2018-04-11T02:24:03.632Z,99.90
2018-04-11T02:26:29.842Z,99.90
2018-04-11T02:28:56.022Z,99.90
2018-04-11T02:31:22.239Z,99.90
2018-04-11T02:33:48.432Z,99.90
2018-04-11T02:36:14.647Z,99.90
2018-04-11T02:38:41.588Z,99.90
2018-04-11T02:41:08.539Z,99.90
2018-04-11T02:43:35.474Z,99.90
2018-04-11T02:46:02.430Z,99.90
2018-04-11T02:48:29.387Z,99.90
2018-04-11T02:50:55.710Z,99.90
2018-04-11T02:53:22.634Z,99.90
2018-04-11T02:55:48.823Z,99.90
2018-04-11T02:58:15.278Z,99.90
2018-04-11T03:00:41.492Z,99.90
2018-04-11T03:03:07.683Z,99.90
2018-04-11T03:05:33.906Z,99.90
2018-04-11T03:08:00.219Z,99.90
2018-04-11T03:10:26.430Z,99.90
2018-04-11T03:12:53.371Z,99.90
2018-04-11T03:15:19.631Z,99.90
2018-04-11T03:17:46.563Z,99.90
2018-04-11T03:20:12.783Z,99.90
2018-04-11T03:22:38.991Z,99.90
2018-04-11T03:25:05.179Z,99.90
2018-04-11T03:27:31.391Z,99.90
2018-04-11T03:29:58.323Z,99.90
2018-04-11T03:32:24.540Z,99.90
2018-04-11T03:34:50.746Z,99.90
2018-04-11T03:37:16.954Z,99.90
2018-04-11T03:39:43.144Z,99.90
2018-04-11T03:42:09.783Z,99.90
2018-04-11T03:44:36.787Z,99.90
2018-04-11T03:47:03.047Z,99.90
2018-04-11T03:49:29.239Z,99.90
2018-04-11T03:51:55.450Z,99.90
2018-04-11T03:54:21.639Z,99.90
2018-04-11T03:56:48.595Z,99.90
2018-04-11T03:59:15.531Z,99.90
2018-04-11T04:01:41.787Z,99.90
2018-04-11T04:04:08.704Z,99.90
2018-04-11T04:06:34.918Z,99.90
2018-04-11T04:09:01.108Z,99.90
2018-04-11T04:11:27.439Z,99.90
2018-04-11T04:14:06.119Z,99.90
2018-04-11T04:16:45.558Z,99.90
2018-04-11T04:19:24.974Z,99.90
2018-04-11T04:21:51.183Z,99.90
2018-04-11T04:24:17.378Z,99.90
2018-04-11T04:26:43.599Z,99.90
2018-04-11T04:29:10.531Z,99.90
2018-04-11T04:31:37.486Z,99.90
2018-04-11T04:34:04.420Z,99.90
2018-04-11T04:36:31.353Z,99.90
2018-04-11T04:38:57.566Z,99.90
2018-04-11T04:41:23.770Z,99.90
2018-04-11T04:43:50.002Z,99.90
2018-04-11T04:46:16.182Z,99.90
2018-04-11T04:48:43.147Z,99.90
2018-04-11T04:51:09.376Z,99.90
2018-04-11T04:53:35.594Z,99.90
2018-04-11T04:56:02.551Z,99.90
2018-04-11T04:58:29.507Z,99.90
2018-04-11T05:00:55.699Z,99.90
2018-04-11T05:03:21.920Z,99.90
2018-04-11T05:05:48.115Z,99.90
2018-04-11T05:08:14.339Z,99.90
2018-04-11T05:10:40.526Z,99.90
2018-04-11T05:13:07.643Z,99.90
2018-04-11T05:15:33.883Z,99.90
2018-04-11T05:18:00.070Z,99.90
2018-04-11T05:20:26.315Z,99.90
2018-04-11T05:22:52.526Z,99.90
2018-04-11T05:25:18.727Z,99.90
2018-04-11T05:27:45.706Z,99.90
2018-04-11T05:30:11.898Z,99.90
2018-04-11T05:32:38.846Z,99.90
2018-04-11T05:35:05.818Z,99.90
2018-04-11T05:37:32.003Z,99.90
2018-04-11T05:39:58.280Z,99.90
2018-04-11T05:42:24.489Z,99.90
2018-04-11T05:44:50.735Z,99.90
2018-04-11T05:47:17.179Z,99.90
2018-04-11T05:49:43.395Z,99.90
2018-04-11T05:52:09.579Z,99.90
2018-04-11T05:54:35.796Z,99.90
2018-04-11T05:57:01.982Z,99.90
2018-04-11T05:59:28.194Z,99.90
2018-04-11T06:01:54.383Z,99.90
2018-04-11T06:04:20.610Z,99.90
2018-04-11T06:06:46.794Z,99.90
2018-04-11T06:09:13.008Z,99.90
2018-04-11T06:11:39.967Z,99.90
2018-04-11T06:14:06.192Z,99.90
2018-04-11T06:16:32.410Z,99.90
2018-04-11T06:18:59.362Z,99.90
2018-04-11T06:21:25.542Z,99.90
2018-04-11T06:23:52.525Z,99.90
2018-04-11T06:26:19.459Z,99.90
2018-04-11T06:28:46.394Z,99.90
2018-04-11T06:31:12.610Z,99.90
2018-04-11T06:33:38.798Z,99.90
2018-04-11T06:36:05.080Z,99.90
2018-04-11T06:38:32.019Z,99.90
2018-04-11T06:40:58.983Z,99.90
2018-04-11T06:43:25.923Z,99.90
2018-04-11T06:45:52.135Z,99.90
2018-04-11T06:48:19.073Z,99.90
2018-04-11T06:50:45.351Z,99.90
2018-04-11T06:53:11.539Z,99.90
2018-04-11T06:55:37.754Z,99.90
2018-04-11T06:58:03.956Z,99.90
2018-04-11T07:00:30.160Z,99.90
2018-04-11T07:02:57.111Z,99.90
2018-04-11T07:05:23.336Z,99.90
2018-04-11T07:07:50.355Z,99.90
2018-04-11T07:10:16.547Z,99.90
2018-04-11T07:12:42.775Z,99.90
2018-04-11T07:15:08.958Z,99.90
2018-04-11T07:17:35.939Z,99.90
2018-04-11T07:20:02.132Z,99.90
2018-04-11T07:22:28.375Z,99.90
2018-04-11T07:24:54.617Z,99.90
2018-04-11T07:27:20.830Z,99.90
2018-04-11T07:29:47.758Z,99.90
2018-04-11T07:32:13.966Z,99.90
2018-04-11T07:34:40.151Z,99.90
2018-04-11T07:37:06.371Z,99.90
2018-04-11T07:39:32.559Z,99.90
2018-04-11T07:41:58.837Z,99.90
2018-04-11T07:44:25.028Z,99.90
2018-04-11T07:46:51.262Z,99.90
2018-04-11T07:49:17.455Z,99.90
2018-04-11T07:51:43.662Z,99.90
2018-04-11T07:54:09.846Z,99.90
2018-04-11T07:56:36.051Z,99.90
2018-04-11T07:59:02.474Z,99.90
2018-04-11T08:01:28.703Z,99.90
2018-04-11T08:03:54.890Z,99.90
2018-04-11T08:06:21.106Z,99.90
2018-04-11T08:08:48.047Z,99.90
2018-04-11T08:11:15.032Z,99.90
2018-04-11T08:13:41.227Z,99.90
2018-04-11T08:16:08.191Z,99.90
2018-04-11T08:18:34.409Z,99.90
2018-04-11T08:21:01.367Z,99.90
2018-04-11T08:23:28.469Z,99.90
2018-04-11T08:25:54.747Z,99.90
2018-04-11T08:28:20.963Z,99.90
2018-04-11T08:30:47.890Z,99.90
2018-04-11T08:33:14.102Z,99.90
2018-04-11T08:35:41.775Z,99.90
2018-04-11T08:38:07.991Z,99.90
2018-04-11T08:40:34.207Z,99.90
2018-04-11T08:43:00.478Z,99.90
2018-04-11T08:45:27.406Z,99.90
2018-04-11T08:47:53.618Z,99.90
2018-04-11T08:50:19.806Z,99.90
2018-04-11T08:52:46.023Z,99.90
2018-04-11T08:55:12.227Z,99.90
2018-04-11T08:57:38.438Z,99.90
2018-04-11T09:00:04.622Z,99.90
2018-04-11T09:02:30.835Z,99.90
2018-04-11T09:04:57.768Z,99.90
2018-04-11T09:07:24.731Z,99.90
2018-04-11T09:09:50.926Z,99.90
2018-04-11T09:12:17.919Z,99.90
2018-04-11T09:14:44.203Z,99.90
2018-04-11T09:17:11.201Z,99.90
2018-04-11T09:19:37.405Z,99.90
2018-04-11T09:22:03.870Z,99.90
2018-04-11T09:24:30.183Z,99.90
2018-04-11T09:26:56.367Z,99.90
2018-04-11T09:29:22.554Z,99.90
2018-04-11T09:31:48.851Z,99.50
2018-04-11T09:34:15.791Z,99.90
2018-04-11T09:36:42.738Z,99.90
2018-04-11T09:39:09.682Z,99.90
2018-04-11T09:41:36.634Z,99.90
2018-04-11T09:44:03.558Z,99.90
2018-04-11T09:46:29.772Z,99.90
2018-04-11T09:48:56.719Z,99.90
2018-04-11T09:51:22.934Z,99.90
2018-04-11T09:53:49.134Z,99.90
2018-04-11T09:56:15.687Z,99.90
2018-04-11T09:58:41.875Z,99.90
2018-04-11T10:01:08.870Z,99.90
2018-04-11T10:03:35.078Z,99.90
2018-04-11T10:06:01.301Z,99.90
2018-04-11T10:08:28.435Z,99.90
2018-04-11T10:10:55.395Z,99.90
2018-04-11T10:13:21.587Z,99.90
2018-04-11T10:15:47.938Z,99.90
2018-04-11T10:18:14.891Z,99.90
2018-04-11T10:20:41.846Z,99.90
2018-04-11T10:23:08.050Z,99.90
2018-04-11T10:25:34.267Z,99.90
2018-04-11T10:28:01.939Z,99.90
2018-04-11T10:30:28.448Z,99.90
2018-04-11T10:32:54.637Z,99.90
2018-04-11T10:35:20.818Z,99.90
2018-04-11T10:37:47.035Z,99.90
2018-04-11T10:40:13.236Z,99.90
2018-04-11T10:42:39.451Z,99.90
2018-04-11T10:45:06.068Z,99.90
2018-04-11T10:47:33.030Z,99.90
2018-04-11T10:52:37.673Z,99.90
2018-04-11T10:55:03.872Z,99.90
2018-04-11T10:57:30.083Z,99.90
2018-04-11T10:59:56.284Z,99.90
2018-04-11T11:02:22.499Z,99.90
2018-04-11T11:04:48.711Z,99.90
2018-04-11T11:07:15.667Z,99.90
2018-04-11T11:09:41.864Z,99.90
2018-04-11T11:12:08.859Z,99.90
2018-04-11T11:14:35.070Z,99.90
2018-04-11T11:17:01.314Z,99.90
2018-04-11T11:19:27.515Z,99.90
2018-04-11T11:21:54.466Z,99.90
2018-04-11T11:24:20.659Z,99.90
2018-04-11T11:26:47.692Z,99.90
2018-04-11T11:29:13.893Z,99.90
2018-04-11T11:31:40.084Z,99.90
2018-04-11T11:34:07.070Z,99.90
2018-04-11T11:36:33.283Z,99.90
2018-04-11T11:38:59.523Z,99.90
2018-04-11T11:41:25.744Z,99.90
2018-04-11T11:43:51.966Z,99.90
2018-04-11T11:46:18.179Z,99.90
2018-04-11T11:48:45.143Z,99.90
2018-04-11T11:51:11.335Z,99.90
2018-04-11T11:53:37.550Z,99.90
2018-04-11T11:56:03.734Z,99.90
2018-04-11T11:58:29.963Z,99.90
2018-04-11T12:00:56.174Z,99.90
2018-04-11T12:03:23.126Z,99.90
2018-04-11T12:05:50.059Z,97.90
2018-04-11T12:08:17.027Z,96.30
2018-04-11T12:10:43.222Z,96.30
2018-04-11T12:13:09.438Z,96.10
2018-04-11T12:15:35.636Z,97.00
2018-04-11T12:18:01.872Z,96.30
2018-04-11T12:20:28.075Z,95.40
2018-04-11T12:22:54.291Z,95.00
2018-04-11T12:25:20.494Z,96.10
2018-04-11T12:27:46.735Z,97.20
2018-04-11T12:30:13.662Z,97.90
2018-04-11T12:32:39.873Z,97.90
2018-04-11T12:35:06.091Z,99.90
2018-04-11T12:37:32.278Z,99.90
2018-04-11T12:39:59.239Z,99.90
2018-04-11T12:42:25.435Z,99.90
2018-04-11T12:44:52.403Z,99.90
2018-04-11T12:47:18.664Z,99.90
2018-04-11T12:49:44.890Z,99.90
2018-04-11T12:52:11.086Z,99.90
2018-04-11T12:54:38.069Z,99.90
2018-04-11T12:57:04.254Z,99.90
2018-04-11T12:59:31.202Z,99.90
2018-04-11T13:01:58.140Z,99.90
2018-04-11T13:04:25.130Z,99.90
2018-04-11T13:06:51.318Z,99.90
2018-04-11T13:09:18.286Z,99.90
2018-04-11T13:11:44.475Z,99.90
2018-04-11T13:14:10.692Z,99.90
2018-04-11T13:16:36.916Z,99.90
2018-04-11T13:19:03.149Z,99.90
2018-04-11T13:21:29.350Z,99.90
2018-04-11T13:23:55.563Z,99.90
2018-04-11T13:26:21.759Z,99.90
2018-04-11T13:28:48.715Z,99.90
2018-04-11T13:31:15.646Z,99.90
2018-04-11T13:33:41.878Z,99.90
2018-04-11T13:36:08.811Z,99.90
2018-04-11T13:38:35.027Z,99.90
2018-04-11T13:41:07.312Z,99.90
2018-04-11T13:43:33.543Z,99.90
2018-04-11T13:45:59.748Z,99.90
2018-04-11T13:48:25.966Z,99.90
2018-04-11T13:50:52.156Z,99.90
2018-04-11T13:53:18.423Z,99.90
2018-04-11T13:55:44.684Z,99.90
2018-04-11T13:58:11.178Z,99.90
2018-04-11T14:00:37.375Z,99.90
2018-04-11T14:03:04.324Z,99.90
2018-04-11T14:05:30.562Z,99.90
2018-04-11T14:07:56.779Z,99.90
2018-04-11T14:10:23.726Z,99.90
2018-04-11T14:12:50.744Z,99.90
2018-04-11T14:15:16.930Z,99.90
2018-04-11T14:17:43.175Z,99.90
2018-04-11T14:20:09.386Z,99.90
2018-04-11T14:22:35.579Z,99.90
2018-04-11T14:25:02.931Z,99.90
2018-04-11T14:27:29.871Z,99.90
2018-04-11T14:29:56.115Z,99.90
2018-04-11T14:32:23.038Z,99.90
2018-04-11T14:34:49.259Z,99.90
2018-04-11T14:37:16.221Z,99.90
2018-04-11T14:39:42.435Z,99.90
2018-04-11T14:42:08.691Z,99.90
2018-04-11T14:44:35.663Z,99.90
2018-04-11T14:47:01.871Z,99.90
2018-04-11T14:49:28.827Z,99.90
2018-04-11T14:51:55.047Z,99.90
2018-04-11T14:54:21.994Z,99.90
2018-04-11T14:56:48.924Z,99.90
2018-04-11T14:59:15.196Z,99.90
2018-04-11T15:01:41.390Z,99.20
2018-04-11T15:04:08.342Z,98.80
2018-04-11T15:06:35.272Z,99.90
2018-04-11T15:09:01.483Z,99.90
2018-04-11T15:11:27.727Z,99.60
2018-04-11T15:13:53.914Z,99.00
2018-04-11T15:16:20.127Z,99.90
2018-04-11T15:18:46.356Z,99.90
2018-04-11T15:21:12.570Z,99.90
2018-04-11T15:23:38.762Z,99.90
2018-04-11T15:26:05.082Z,99.90
2018-04-11T15:28:31.280Z,99.90
2018-04-11T15:30:57.512Z,99.90
2018-04-11T15:33:23.710Z,99.90
2018-04-11T15:35:50.670Z,99.90
2018-04-11T15:38:16.859Z,99.90
2018-04-11T15:40:43.112Z,99.90
2018-04-11T15:43:10.058Z,99.90
2018-04-11T15:45:37.021Z,99.90
2018-04-11T15:48:03.219Z,99.90
2018-04-11T15:50:30.170Z,99.90
2018-04-11T15:52:57.099Z,99.90
2018-04-11T15:55:23.319Z,99.90
2018-04-11T15:57:49.511Z,99.90
2018-04-11T16:00:15.947Z,99.90
2018-04-11T16:02:42.151Z,99.90
2018-04-11T16:05:08.344Z,99.90
2018-04-11T16:07:35.298Z,99.90
2018-04-11T16:10:01.507Z,99.90
2018-04-11T16:12:27.731Z,99.90
2018-04-11T16:14:53.926Z,99.90
2018-04-11T16:17:20.179Z,99.90
2018-04-11T16:19:46.367Z,99.90
2018-04-11T16:22:13.324Z,99.90
2018-04-11T16:24:39.539Z,99.90
2018-04-11T16:27:13.378Z,99.90
2018-04-11T16:29:39.567Z,99.90
2018-04-11T16:32:06.526Z,99.90
2018-04-11T16:34:32.711Z,99.90
2018-04-11T16:36:59.662Z,99.90
2018-04-11T16:39:25.868Z,99.90
2018-04-11T16:41:52.079Z,99.90
2018-04-11T16:44:18.278Z,99.90
2018-04-11T16:46:45.235Z,99.90
2018-04-11T16:49:11.427Z,99.90
2018-04-11T16:51:38.400Z,99.90
2018-04-11T16:54:05.350Z,99.90
2018-04-11T16:56:31.572Z,99.90
2018-04-11T16:58:57.790Z,99.90
2018-04-11T17:01:24.751Z,99.90
2018-04-11T17:03:51.694Z,99.90
2018-04-11T17:06:18.651Z,99.90
2018-04-11T17:08:44.844Z,99.90
2018-04-11T17:11:11.823Z,99.90
2018-04-11T17:13:38.015Z,99.90
2018-04-11T17:16:05.782Z,99.90
2018-04-11T17:18:32.003Z,99.90
2018-04-11T17:21:10.667Z,99.90
2018-04-11T17:23:49.199Z,99.90
2018-04-11T17:26:27.836Z,99.90
2018-04-11T17:29:06.478Z,99.90
2018-04-11T17:31:32.736Z,99.90
2018-04-11T17:33:59.674Z,99.90
2018-04-11T17:36:26.638Z,99.90
2018-04-11T17:38:52.840Z,99.90
2018-04-11T17:41:19.496Z,99.90
2018-04-11T17:43:46.511Z,99.90
2018-04-11T17:46:12.710Z,99.90
2018-04-11T17:48:38.999Z,99.90
2018-04-11T17:51:05.938Z,99.90
2018-04-11T17:53:32.895Z,99.90
2018-04-11T17:55:59.829Z,99.90
2018-04-11T17:58:26.051Z,99.90
2018-04-11T18:00:52.983Z,99.90
2018-04-11T18:03:19.204Z,99.90
2018-04-11T18:05:45.399Z,99.90
2018-04-11T18:08:11.615Z,99.90
2018-04-11T18:10:37.808Z,99.90
2018-04-11T18:13:04.032Z,99.90
2018-04-11T18:15:30.227Z,99.90
2018-04-11T18:17:56.475Z,99.90
2018-04-11T18:20:22.676Z,99.90
2018-04-11T18:22:48.902Z,99.90
2018-04-11T18:25:15.173Z,99.90
2018-04-11T18:27:41.375Z,99.90
2018-04-11T18:30:07.567Z,99.90
2018-04-11T18:32:34.524Z,99.90
2018-04-11T18:35:00.716Z,99.90
2018-04-11T18:37:28.432Z,99.90
2018-04-11T18:39:54.624Z,99.90
2018-04-11T18:42:21.578Z,99.90
2018-04-11T18:44:48.502Z,99.90
2018-04-11T18:47:15.484Z,99.90
2018-04-11T18:49:41.679Z,99.90
2018-04-11T18:52:08.642Z,99.90
2018-04-11T18:54:35.571Z,99.90
2018-04-11T18:57:01.791Z,99.90
2018-04-11T18:59:29.522Z,99.90
2018-04-11T19:01:55.734Z,99.90
2018-04-11T19:04:21.919Z,99.90
2018-04-11T19:06:48.879Z,99.90
2018-04-11T19:09:15.816Z,99.90
2018-04-11T19:11:42.772Z,99.90
2018-04-11T19:14:09.699Z,99.90
2018-04-11T19:16:35.915Z,99.90
2018-04-11T19:19:02.153Z,99.90
2018-04-11T19:21:28.399Z,99.90
2018-04-11T19:23:54.586Z,99.90
2018-04-11T19:26:20.804Z,99.90
2018-04-11T19:28:47.010Z,99.90
2018-04-11T19:31:13.366Z,99.90
2018-04-11T19:33:39.623Z,99.90
2018-04-11T19:36:05.948Z,99.90
2018-04-11T19:38:32.168Z,99.90
2018-04-11T19:40:58.374Z,99.90
2018-04-11T19:43:24.670Z,99.90
2018-04-11T19:45:51.625Z,99.90
2018-04-11T19:48:18.611Z,99.90
2018-04-11T19:50:44.818Z,99.90
2018-04-11T19:53:11.040Z,99.90
2018-04-11T19:55:37.230Z,99.90
2018-04-11T19:58:03.446Z,99.90
2018-04-11T20:00:29.639Z,99.90
2018-04-11T20:02:55.850Z,99.90
2018-04-11T20:05:22.780Z,99.90
2018-04-11T20:07:49.738Z,99.90
2018-04-11T20:10:16.670Z,99.90
2018-04-11T20:12:43.630Z,99.90
2018-04-11T20:15:10.583Z,99.90
2018-04-11T20:17:36.844Z,99.90
2018-04-11T20:20:03.059Z,99.90
2018-04-11T20:22:29.279Z,99.90
2018-04-11T20:24:55.551Z,99.90
2018-04-11T20:27:21.787Z,99.90
2018-04-11T20:29:47.979Z,99.90
2018-04-11T20:32:14.163Z,99.90
2018-04-11T20:34:41.115Z,99.90
2018-04-11T20:37:08.048Z,99.90
2018-04-11T20:39:34.255Z,99.90
2018-04-11T20:42:00.461Z,99.90
2018-04-11T20:44:26.689Z,99.90
2018-04-11T20:46:52.887Z,99.90
2018-04-11T20:49:19.123Z,99.90
2018-04-11T20:51:45.346Z,99.90
2018-04-11T20:54:12.302Z,99.90
2018-04-11T20:56:38.497Z,99.90
2018-04-11T20:59:04.715Z,99.90
2018-04-11T21:01:30.907Z,99.90
2018-04-11T21:03:57.128Z,99.90
2018-04-11T21:06:23.348Z,99.90
2018-04-11T21:08:49.558Z,99.90
2018-04-11T21:11:16.495Z,99.90
2018-04-11T21:13:43.457Z,99.90
2018-04-11T21:16:10.386Z,99.90
2018-04-11T21:18:37.397Z,99.90
2018-04-11T21:21:03.593Z,99.90
2018-04-11T21:23:30.143Z,99.90
2018-04-11T21:25:56.326Z,99.90
2018-04-11T21:28:23.627Z,99.90
2018-04-11T21:30:49.819Z,99.90
2018-04-11T21:33:16.799Z,99.90
2018-04-11T21:35:42.999Z,99.90
2018-04-11T21:38:09.950Z,99.90
2018-04-11T21:40:36.139Z,99.90
2018-04-11T21:43:03.458Z,99.90
2018-04-11T21:45:29.643Z,99.90
2018-04-11T21:47:56.604Z,99.90
2018-04-11T21:50:23.530Z,99.90
2018-04-11T21:53:00.420Z,99.90
2018-04-11T21:55:27.374Z,99.90
2018-04-11T21:57:54.400Z,99.90
2018-04-11T22:00:20.593Z,99.90
2018-04-11T22:02:46.875Z,99.90
2018-04-11T22:05:13.803Z,99.90
2018-04-11T22:07:40.023Z,99.90
2018-04-11T22:10:06.212Z,99.90
2018-04-11T22:12:32.435Z,99.90
2018-04-11T22:14:58.630Z,99.90
2018-04-11T22:17:25.582Z,99.90
2018-04-11T22:19:52.534Z,99.90
2018-04-11T22:22:19.679Z,99.90
2018-04-11T22:24:46.648Z,99.90
2018-04-11T22:27:12.853Z,99.90
2018-04-11T22:29:39.814Z,99.90
2018-04-11T22:32:06.027Z,99.90
2018-04-11T22:34:32.987Z,99.90
2018-04-11T22:36:59.175Z,99.90
2018-04-11T22:39:25.392Z,99.90
2018-04-11T22:41:51.585Z,99.90
2018-04-11T22:44:17.804Z,99.90
2018-04-11T22:46:43.999Z,99.90
2018-04-11T22:49:10.223Z,99.90
2018-04-11T22:51:36.414Z,99.90
2018-04-11T22:54:02.651Z,99.90
2018-04-11T22:56:28.859Z,99.90
2018-04-11T22:58:55.074Z,99.90
2018-04-11T23:01:21.535Z,99.90
2018-04-11T23:03:47.755Z,99.90
2018-04-11T23:06:13.944Z,99.90
2018-04-11T23:08:40.252Z,99.90
2018-04-11T23:11:06.503Z,99.90
2018-04-11T23:13:33.455Z,99.90
2018-04-11T23:16:00.436Z,99.90
2018-04-11T23:18:26.682Z,99.90
2018-04-11T23:20:52.897Z,99.90
2018-04-11T23:23:19.095Z,99.90
2018-04-11T23:25:46.062Z,99.90
2018-04-11T23:28:12.252Z,99.90
2018-04-11T23:30:39.224Z,99.90
2018-04-11T23:33:05.448Z,99.90
2018-04-11T23:35:32.424Z,99.90
2018-04-11T23:37:58.638Z,99.90
2018-04-11T23:40:24.859Z,99.90
2018-04-11T23:42:51.047Z,99.90
2018-04-11T23:45:17.267Z,99.90
2018-04-11T23:47:43.477Z,99.90
2018-04-11T23:50:09.694Z,99.90
2018-04-11T23:52:35.896Z,99.90
2018-04-11T23:55:02.462Z,99.90
2018-04-11T23:57:28.646Z,99.90
2018-04-11T23:59:55.603Z,99.90
